createdAt,value
2017-12-02T00:01:38.471Z,21.17
2017-12-02T00:04:05.892Z,22.07
2017-12-02T00:06:33.335Z,24.20
2017-12-02T00:09:00.732Z,23.37
2017-12-02T00:11:28.122Z,23.10
2017-12-02T00:13:55.526Z,23.10
2017-12-02T00:16:22.923Z,22.90
2017-12-02T00:18:50.322Z,23.83
2017-12-02T00:21:17.767Z,24.07
2017-12-02T00:23:45.163Z,23.37
2017-12-02T00:26:12.666Z,24.47
2017-12-02T00:28:40.054Z,22.67
2017-12-02T00:31:07.448Z,20.70
2017-12-02T00:33:34.863Z,22.73
2017-12-02T00:36:02.294Z,22.37
2017-12-02T00:38:29.755Z,21.63
2017-12-02T00:40:57.201Z,22.40
2017-12-02T00:43:24.593Z,21.77
2017-12-02T00:45:52.022Z,23.10
2017-12-02T00:48:19.405Z,23.03
2017-12-02T00:50:46.811Z,22.17
2017-12-02T00:53:14.301Z,24.27
2017-12-02T00:55:41.699Z,23.20
2017-12-02T00:58:09.223Z,22.33
2017-12-02T01:00:36.623Z,22.20
2017-12-02T01:03:04.025Z,23.03
2017-12-02T01:05:31.414Z,22.97
2017-12-02T01:07:58.815Z,24.00
2017-12-02T01:10:26.210Z,23.70
2017-12-02T01:12:53.630Z,23.33
2017-12-02T01:15:21.019Z,22.40
2017-12-02T01:17:48.423Z,22.97
2017-12-02T01:20:15.810Z,21.60
2017-12-02T01:22:43.298Z,22.80
2017-12-02T01:25:10.690Z,22.30
2017-12-02T01:27:38.110Z,21.60
2017-12-02T01:30:05.502Z,22.40
2017-12-02T01:32:32.903Z,22.53
2017-12-02T01:35:00.378Z,22.27
2017-12-02T01:37:27.839Z,20.53
2017-12-02T01:39:55.287Z,22.93
2017-12-02T01:42:22.678Z,20.80
2017-12-02T01:44:50.099Z,22.70
2017-12-02T01:47:17.499Z,21.17
2017-12-02T01:49:44.898Z,19.57
2017-12-02T01:52:12.362Z,19.90
2017-12-02T01:54:39.750Z,20.67
2017-12-02T01:57:07.194Z,19.57
2017-12-02T01:59:34.632Z,20.10
2017-12-02T02:02:02.043Z,19.77
2017-12-02T02:04:29.542Z,22.10
2017-12-02T02:06:56.971Z,22.10
2017-12-02T02:09:24.370Z,23.10
2017-12-02T02:11:51.779Z,20.73
2017-12-02T02:14:19.267Z,21.40
2017-12-02T02:16:46.720Z,19.20
2017-12-02T02:19:14.128Z,19.20
2017-12-02T02:21:41.532Z,20.07
2017-12-02T02:24:08.990Z,19.30
2017-12-02T02:26:36.389Z,20.10
2017-12-02T02:29:03.801Z,20.33
2017-12-02T02:31:31.251Z,18.87
2017-12-02T02:33:58.727Z,19.60
2017-12-02T02:36:26.098Z,19.60
2017-12-02T02:38:59.358Z,17.93
2017-12-02T02:41:26.742Z,19.40
2017-12-02T02:43:54.169Z,19.47
2017-12-02T02:46:21.552Z,19.70
2017-12-02T02:48:48.966Z,18.50
2017-12-02T02:51:16.354Z,17.93
2017-12-02T02:53:43.759Z,20.20
2017-12-02T02:56:11.143Z,19.60
2017-12-02T02:58:38.590Z,18.77
2017-12-02T03:01:06.057Z,17.35
2017-12-02T03:03:33.454Z,17.90
2017-12-02T03:06:00.842Z,19.23
2017-12-02T03:08:28.318Z,18.77
2017-12-02T03:10:55.790Z,18.00
2017-12-02T03:13:23.231Z,19.70
2017-12-02T03:15:50.631Z,19.50
2017-12-02T03:18:18.053Z,18.73
2017-12-02T03:20:45.493Z,20.03
2017-12-02T03:23:12.882Z,19.90
2017-12-02T03:25:40.290Z,20.47
2017-12-02T03:28:08.487Z,20.90
2017-12-02T03:30:35.883Z,18.73
2017-12-02T03:33:03.270Z,21.00
2017-12-02T03:35:30.770Z,21.73
2017-12-02T03:37:58.164Z,21.20
2017-12-02T03:40:25.571Z,19.57
2017-12-02T03:42:52.960Z,20.10
2017-12-02T03:45:20.470Z,20.10
2017-12-02T03:47:47.854Z,19.40
2017-12-02T03:50:15.263Z,20.47
2017-12-02T03:52:42.642Z,21.03
2017-12-02T03:55:10.051Z,20.77
2017-12-02T03:57:37.454Z,21.03
2017-12-02T04:00:04.854Z,20.13
2017-12-02T04:02:32.246Z,20.50
2017-12-02T04:04:59.652Z,20.67
2017-12-02T04:07:27.070Z,20.20
2017-12-02T04:09:54.470Z,20.23
2017-12-02T04:12:21.861Z,21.80
2017-12-02T04:14:49.611Z,23.20
2017-12-02T04:17:16.992Z,23.23
2017-12-02T04:19:44.386Z,22.60
2017-12-02T04:22:11.806Z,21.67
2017-12-02T04:24:39.205Z,22.80
2017-12-02T04:27:06.602Z,25.50
2017-12-02T04:29:34.002Z,25.87
2017-12-02T04:32:01.423Z,25.97
2017-12-02T04:34:28.815Z,26.60
2017-12-02T04:36:56.258Z,26.13
2017-12-02T04:39:23.690Z,22.70
2017-12-02T04:41:51.153Z,23.23
2017-12-02T04:44:18.608Z,23.43
2017-12-02T04:46:46.022Z,22.20
2017-12-02T04:49:13.515Z,22.20
2017-12-02T04:51:40.982Z,21.70
2017-12-02T04:54:08.442Z,23.90
2017-12-02T04:56:35.826Z,23.53
2017-12-02T04:59:03.226Z,23.60
2017-12-02T05:01:30.698Z,24.10
2017-12-02T05:03:58.099Z,24.43
2017-12-02T05:06:25.489Z,24.23
2017-12-02T05:08:52.885Z,23.27
2017-12-02T05:11:20.371Z,22.87
2017-12-02T05:13:47.822Z,22.53
2017-12-02T05:16:15.294Z,23.17
2017-12-02T05:18:42.744Z,22.83
2017-12-02T05:21:10.143Z,25.47
2017-12-02T05:23:37.554Z,25.20
2017-12-02T05:26:04.961Z,24.77
2017-12-02T05:28:32.383Z,25.00
2017-12-02T05:30:59.811Z,23.20
2017-12-02T05:33:27.212Z,22.97
2017-12-02T05:35:54.613Z,21.50
2017-12-02T05:38:22.073Z,22.87
2017-12-02T05:40:49.483Z,22.77
2017-12-02T05:43:16.874Z,22.70
2017-12-02T05:45:44.272Z,23.77
2017-12-02T05:48:11.666Z,23.80
2017-12-02T05:50:39.055Z,24.20
2017-12-02T05:53:06.573Z,23.60
2017-12-02T05:55:34.070Z,25.17
2017-12-02T05:58:01.478Z,24.30
2017-12-02T06:00:28.886Z,24.15
2017-12-02T06:02:56.339Z,23.07
2017-12-02T06:05:23.734Z,22.33
2017-12-02T06:07:51.122Z,21.73
2017-12-02T06:10:18.523Z,21.77
2017-12-02T06:12:45.938Z,20.67
2017-12-02T06:15:13.412Z,22.13
2017-12-02T06:17:40.802Z,22.53
2017-12-02T06:20:08.216Z,18.27
2017-12-02T06:22:35.631Z,19.87
2017-12-02T06:25:03.018Z,20.07
2017-12-02T06:27:30.421Z,19.70
2017-12-02T06:29:57.847Z,20.13
2017-12-02T06:32:25.270Z,20.10
2017-12-02T06:34:52.671Z,20.07
2017-12-02T06:37:20.119Z,24.53
2017-12-02T06:39:47.502Z,21.60
2017-12-02T06:42:14.917Z,21.90
2017-12-02T06:44:42.375Z,21.07
2017-12-02T06:47:09.782Z,20.50
2017-12-02T06:49:37.188Z,17.80
2017-12-02T06:52:04.586Z,21.53
2017-12-02T06:54:32.002Z,20.57
2017-12-02T06:56:59.414Z,22.80
2017-12-02T06:59:26.819Z,22.20
2017-12-02T07:01:54.214Z,19.60
2017-12-02T07:04:21.633Z,19.57
2017-12-02T07:06:49.026Z,18.47
2017-12-02T07:09:16.430Z,22.07
2017-12-02T07:11:43.818Z,19.63
2017-12-02T07:14:11.222Z,19.67
2017-12-02T07:16:38.611Z,17.83
2017-12-02T07:19:06.010Z,17.80
2017-12-02T07:21:33.398Z,16.77
2017-12-02T07:24:00.807Z,16.70
2017-12-02T07:26:28.202Z,17.27
2017-12-02T07:28:55.594Z,15.70
2017-12-02T07:31:22.989Z,15.73
2017-12-02T07:33:50.402Z,15.97
2017-12-02T07:36:17.796Z,16.37
2017-12-02T07:38:45.199Z,15.50
2017-12-02T07:41:12.586Z,17.20
2017-12-02T07:43:40.058Z,16.43
2017-12-02T07:46:07.462Z,16.57
2017-12-02T07:48:34.858Z,18.80
2017-12-02T07:51:02.279Z,16.57
2017-12-02T07:53:29.692Z,17.60
2017-12-02T07:55:57.162Z,17.73
2017-12-02T07:58:24.554Z,18.03
2017-12-02T08:00:51.951Z,20.52
2017-12-02T08:03:19.359Z,18.00
2017-12-02T08:05:46.786Z,19.83
2017-12-02T08:08:14.174Z,19.80
2017-12-02T08:10:41.675Z,19.00
2017-12-02T08:13:09.176Z,18.57
2017-12-02T08:15:36.562Z,16.20
2017-12-02T08:18:03.958Z,19.00
2017-12-02T08:20:31.376Z,19.07
2017-12-02T08:22:58.775Z,17.87
2017-12-02T08:25:26.246Z,20.37
2017-12-02T08:27:53.681Z,18.53
2017-12-02T08:30:21.122Z,20.90
2017-12-02T08:32:48.591Z,20.07
2017-12-02T08:35:15.970Z,20.17
2017-12-02T08:37:43.378Z,18.00
2017-12-02T08:40:10.847Z,17.67
2017-12-02T08:42:38.242Z,17.60
2017-12-02T08:45:05.639Z,17.70
2017-12-02T08:47:33.110Z,18.50
2017-12-02T08:50:00.525Z,18.30
2017-12-02T08:52:27.920Z,16.83
2017-12-02T08:54:55.307Z,17.10
2017-12-02T08:57:22.733Z,17.57
2017-12-02T08:59:50.126Z,17.97
2017-12-02T09:02:17.526Z,18.67
2017-12-02T09:04:44.938Z,17.83
2017-12-02T09:07:12.352Z,18.87
2017-12-02T09:09:39.747Z,18.27
2017-12-02T09:12:07.154Z,19.07
2017-12-02T09:14:34.552Z,17.67
2017-12-02T09:17:01.950Z,18.13
2017-12-02T09:19:29.343Z,18.10
2017-12-02T09:21:56.755Z,20.27
2017-12-02T09:24:24.153Z,18.63
2017-12-02T09:26:51.542Z,17.80
2017-12-02T09:29:18.937Z,13.50
2017-12-02T09:31:46.358Z,14.27
2017-12-02T09:34:13.757Z,14.93
2017-12-02T09:36:41.158Z,14.33
2017-12-02T09:39:08.558Z,16.40
2017-12-02T09:41:36.043Z,14.90
2017-12-02T09:44:03.439Z,14.90
2017-12-02T09:46:30.830Z,15.90
2017-12-02T09:48:58.311Z,16.87
2017-12-02T09:51:25.743Z,17.03
2017-12-02T09:53:53.107Z,18.17
2017-12-02T09:56:20.498Z,17.47
2017-12-02T09:58:47.935Z,19.80
2017-12-02T10:01:15.383Z,18.47
2017-12-02T10:03:42.775Z,17.23
2017-12-02T10:06:10.193Z,19.63
2017-12-02T10:08:37.646Z,18.77
2017-12-02T10:11:05.051Z,19.60
2017-12-02T10:13:32.462Z,20.50
2017-12-02T10:15:59.917Z,21.97
2017-12-02T10:18:27.307Z,21.63
2017-12-02T10:20:53.998Z,21.57
2017-12-02T10:23:21.389Z,21.20
2017-12-02T10:25:48.810Z,23.80
2017-12-02T10:28:16.194Z,22.80
2017-12-02T10:30:43.582Z,23.57
2017-12-02T10:33:10.986Z,23.30
2017-12-02T10:35:38.385Z,23.03
2017-12-02T10:38:05.769Z,22.80
2017-12-02T10:40:33.222Z,21.47
2017-12-02T10:43:00.716Z,21.93
2017-12-02T10:45:28.098Z,21.20
2017-12-02T10:47:55.510Z,20.73
2017-12-02T10:50:22.894Z,23.07
2017-12-02T10:52:50.304Z,22.80
2017-12-02T10:55:17.683Z,23.13
2017-12-02T10:57:45.079Z,23.03
2017-12-02T11:00:12.478Z,23.20
2017-12-02T11:02:39.887Z,22.27
2017-12-02T11:05:07.310Z,22.60
2017-12-02T11:07:34.723Z,24.67
2017-12-02T11:10:02.220Z,23.00
2017-12-02T11:12:29.666Z,23.90
2017-12-02T11:14:57.054Z,22.90
2017-12-02T11:17:24.455Z,21.33
2017-12-02T11:19:51.944Z,22.63
2017-12-02T11:22:19.344Z,22.03
2017-12-02T11:24:46.850Z,23.07
2017-12-02T11:27:14.255Z,22.13
2017-12-02T11:29:41.678Z,21.70
2017-12-02T11:32:09.120Z,22.17
2017-12-02T11:34:36.506Z,21.17
2017-12-02T11:37:03.897Z,20.40
2017-12-02T11:39:31.298Z,20.97
2017-12-02T11:41:58.733Z,21.43
2017-12-02T11:44:26.132Z,20.90
2017-12-02T11:46:53.551Z,22.40
2017-12-02T11:49:21.007Z,23.90
2017-12-02T11:51:48.467Z,24.10
2017-12-02T11:54:15.917Z,22.37
2017-12-02T11:56:43.307Z,24.40
2017-12-02T11:59:10.706Z,25.40
2017-12-02T12:01:38.102Z,23.17
2017-12-02T12:04:05.505Z,24.80
2017-12-02T12:06:32.894Z,26.20
2017-12-02T12:09:00.343Z,28.03
2017-12-02T12:11:27.747Z,25.27
2017-12-02T12:13:55.142Z,26.80
2017-12-02T12:16:22.533Z,24.47
2017-12-02T12:18:49.938Z,25.40
2017-12-02T12:21:17.417Z,22.43
2017-12-02T12:23:44.823Z,24.67
2017-12-02T12:26:12.227Z,23.20
2017-12-02T12:28:39.627Z,22.73
2017-12-02T12:31:07.022Z,26.37
2017-12-02T12:33:34.422Z,22.67
2017-12-02T12:36:01.820Z,24.47
2017-12-02T12:38:29.210Z,24.17
2017-12-02T12:40:56.618Z,25.20
2017-12-02T12:43:24.011Z,23.20
2017-12-02T12:45:51.424Z,22.60
2017-12-02T12:48:18.821Z,23.20
2017-12-02T12:50:46.241Z,22.60
2017-12-02T12:53:13.631Z,25.20
2017-12-02T12:55:41.035Z,25.87
2017-12-02T12:58:08.434Z,25.00
2017-12-02T13:00:35.823Z,24.97
2017-12-02T13:03:03.278Z,21.83
2017-12-02T13:05:30.678Z,24.30
2017-12-02T13:07:58.150Z,23.17
2017-12-02T13:10:25.554Z,22.60
2017-12-02T13:12:52.953Z,22.90
2017-12-02T13:15:20.345Z,21.27
2017-12-02T13:17:47.766Z,21.07
2017-12-02T13:20:15.150Z,15.07
2017-12-02T13:22:42.638Z,17.60
2017-12-02T13:25:10.034Z,17.43
2017-12-02T13:27:37.435Z,18.00
2017-12-02T13:30:04.838Z,18.03
2017-12-02T13:32:32.234Z,19.10
2017-12-02T13:34:59.617Z,16.60
2017-12-02T13:37:27.026Z,18.87
2017-12-02T13:39:55.337Z,21.27
2017-12-02T13:42:22.802Z,23.00
2017-12-02T13:44:50.199Z,25.00
2017-12-02T13:47:17.598Z,25.20
2017-12-02T13:49:45.053Z,22.30
2017-12-02T13:52:12.401Z,19.57
2017-12-02T13:54:39.790Z,23.00
2017-12-02T13:57:07.202Z,23.50
2017-12-02T13:59:34.695Z,22.63
2017-12-02T14:02:02.149Z,24.70
2017-12-02T14:04:29.598Z,22.97
2017-12-02T14:06:56.989Z,23.80
2017-12-02T14:09:24.406Z,24.73
2017-12-02T14:11:51.802Z,27.30
2017-12-02T14:14:19.196Z,27.47
2017-12-02T14:16:46.682Z,28.57
2017-12-02T14:19:14.079Z,30.23
2017-12-02T14:21:41.469Z,29.40
2017-12-02T14:24:08.875Z,25.97
2017-12-02T14:26:36.266Z,30.27
2017-12-02T14:29:03.746Z,26.40
2017-12-02T14:31:31.213Z,26.97
2017-12-02T14:33:58.616Z,28.63
2017-12-02T14:36:26.010Z,26.17
2017-12-02T14:38:53.411Z,29.13
2017-12-02T14:41:20.835Z,32.30
2017-12-02T14:43:48.292Z,34.83
2017-12-02T14:46:15.744Z,34.63
2017-12-02T14:48:43.134Z,35.90
2017-12-02T14:51:10.533Z,27.30
2017-12-02T14:53:37.918Z,25.33
2017-12-02T14:56:05.374Z,23.67
2017-12-02T14:58:32.762Z,26.20
2017-12-02T15:01:00.182Z,33.20
2017-12-02T15:03:27.578Z,26.13
2017-12-02T15:05:55.089Z,21.00
2017-12-02T15:08:22.506Z,22.63
2017-12-02T15:10:49.898Z,25.83
2017-12-02T15:13:17.361Z,29.13
2017-12-02T15:15:44.772Z,26.60
2017-12-02T15:18:12.183Z,24.33
2017-12-02T15:20:39.630Z,26.23
2017-12-02T15:23:06.984Z,24.33
2017-12-02T15:25:34.421Z,25.20
2017-12-02T15:28:01.822Z,28.43
2017-12-02T15:30:29.245Z,23.07
2017-12-02T15:32:56.634Z,23.97
2017-12-02T15:35:24.062Z,24.03
2017-12-02T15:37:51.458Z,28.63
2017-12-02T15:40:18.845Z,23.33
2017-12-02T15:42:46.314Z,23.73
2017-12-02T15:45:13.781Z,27.73
2017-12-02T15:47:41.239Z,24.07
2017-12-02T15:50:08.694Z,23.47
2017-12-02T15:52:36.102Z,25.67
2017-12-02T15:55:03.502Z,28.00
2017-12-02T15:57:30.958Z,27.93
2017-12-02T15:59:58.421Z,21.27
2017-12-02T16:02:25.876Z,27.10
2017-12-02T16:04:53.325Z,22.43
2017-12-02T16:07:20.714Z,23.03
2017-12-02T16:09:48.115Z,20.60
2017-12-02T16:12:15.507Z,19.20
2017-12-02T16:14:42.889Z,21.60
2017-12-02T16:17:10.295Z,19.30
2017-12-02T16:19:37.766Z,19.10
2017-12-02T16:22:05.162Z,19.70
2017-12-02T16:24:32.568Z,18.47
2017-12-02T16:26:59.949Z,22.30
2017-12-02T16:29:27.354Z,21.80
2017-12-02T16:31:54.748Z,21.83
2017-12-02T16:34:22.202Z,20.77
2017-12-02T16:36:49.600Z,21.40
2017-12-02T16:39:17.037Z,21.47
2017-12-02T16:41:44.437Z,21.50
2017-12-02T16:44:11.850Z,22.97
2017-12-02T16:46:39.249Z,24.07
2017-12-02T16:49:06.630Z,23.97
2017-12-02T16:51:34.090Z,22.67
2017-12-02T16:54:01.494Z,22.47
2017-12-02T16:56:28.878Z,22.30
2017-12-02T16:58:56.294Z,20.27
2017-12-02T17:01:23.690Z,21.90
2017-12-02T17:03:51.086Z,21.07
2017-12-02T17:06:18.518Z,22.63
2017-12-02T17:08:45.906Z,23.13
2017-12-02T17:11:13.331Z,23.57
2017-12-02T17:13:40.778Z,24.03
2017-12-02T17:16:08.174Z,21.47
2017-12-02T17:18:35.565Z,24.60
2017-12-02T17:21:03.050Z,20.57
2017-12-02T17:23:30.442Z,22.73
2017-12-02T17:25:57.854Z,22.93
2017-12-02T17:28:25.318Z,23.33
2017-12-02T17:30:52.774Z,24.10
2017-12-02T17:33:20.167Z,24.20
2017-12-02T17:35:47.591Z,19.90
2017-12-02T17:38:14.970Z,19.83
2017-12-02T17:40:42.374Z,20.13
2017-12-02T17:43:09.842Z,21.87
2017-12-02T17:45:37.306Z,20.70
2017-12-02T17:48:04.758Z,22.63
2017-12-02T17:50:32.222Z,19.90
2017-12-02T17:52:59.633Z,20.10
2017-12-02T17:55:27.136Z,21.70
2017-12-02T17:57:54.535Z,19.37
2017-12-02T18:00:21.946Z,17.43
2017-12-02T18:02:49.395Z,18.17
2017-12-02T18:05:16.787Z,17.50
2017-12-02T18:07:44.182Z,17.70
2017-12-02T18:10:11.594Z,17.43
2017-12-02T18:12:38.989Z,19.13
2017-12-02T18:15:06.474Z,18.50
2017-12-02T18:17:33.890Z,17.93
2017-12-02T18:20:01.378Z,18.23
2017-12-02T18:22:28.786Z,16.90
2017-12-02T18:24:56.173Z,18.00
2017-12-02T18:27:23.571Z,18.53
2017-12-02T18:29:51.010Z,19.03
2017-12-02T18:32:18.466Z,19.77
2017-12-02T18:34:45.862Z,16.20
2017-12-02T18:37:13.254Z,17.53
2017-12-02T18:39:40.730Z,19.10
2017-12-02T18:42:08.118Z,19.07
2017-12-02T18:44:35.544Z,18.70
2017-12-02T18:47:02.930Z,19.83
2017-12-02T18:49:30.313Z,18.87
2017-12-02T18:51:57.717Z,19.97
2017-12-02T18:54:25.111Z,20.63
2017-12-02T18:56:52.498Z,25.87
2017-12-02T18:59:19.970Z,33.10
2017-12-02T19:01:47.384Z,28.37
2017-12-02T19:04:14.783Z,22.37
2017-12-02T19:06:42.174Z,20.53
2017-12-02T19:09:09.570Z,21.57
2017-12-02T19:11:36.957Z,21.70
2017-12-02T19:14:04.404Z,22.43
2017-12-02T19:16:31.810Z,24.03
2017-12-02T19:18:59.209Z,21.30
2017-12-02T19:21:26.682Z,17.63
2017-12-02T19:23:54.109Z,20.00
2017-12-02T19:26:21.505Z,17.20
2017-12-02T19:28:48.923Z,19.20
2017-12-02T19:31:16.306Z,19.23
2017-12-02T19:33:43.748Z,18.57
2017-12-02T19:36:11.217Z,19.07
2017-12-02T19:38:38.606Z,17.57
2017-12-02T19:41:06.013Z,19.10
2017-12-02T19:43:33.402Z,16.73
2017-12-02T19:46:00.843Z,17.40
2017-12-02T19:48:28.230Z,18.77
2017-12-02T19:50:55.639Z,18.77
2017-12-02T19:53:23.026Z,18.57
2017-12-02T19:55:50.438Z,17.17
2017-12-02T19:58:17.842Z,18.10
2017-12-02T20:00:45.235Z,17.03
2017-12-02T20:03:12.642Z,16.60
2017-12-02T20:05:40.078Z,16.20
2017-12-02T20:08:07.539Z,17.17
2017-12-02T20:10:34.948Z,18.63
2017-12-02T20:13:02.334Z,18.10
2017-12-02T20:15:29.802Z,18.13
2017-12-02T20:17:57.204Z,17.90
2017-12-02T20:20:24.611Z,17.80
2017-12-02T20:22:52.083Z,18.50
2017-12-02T20:28:10.083Z,20.73
2017-12-02T20:30:37.478Z,18.37
2017-12-02T20:33:04.862Z,16.77
2017-12-02T20:35:32.282Z,17.50
2017-12-02T20:37:59.672Z,17.10
2017-12-02T20:40:27.062Z,17.90
2017-12-02T20:42:54.449Z,18.30
2017-12-02T20:45:21.903Z,17.40
2017-12-02T20:47:49.304Z,17.40
2017-12-02T20:50:16.780Z,18.83
2017-12-02T20:52:44.161Z,17.07
2017-12-02T20:55:11.579Z,17.53
2017-12-02T20:57:38.982Z,19.87
2017-12-02T21:00:06.382Z,18.50
2017-12-02T21:02:33.775Z,16.50
2017-12-02T21:05:01.168Z,17.27
2017-12-02T21:07:28.670Z,22.73
2017-12-02T21:09:56.062Z,20.60
2017-12-02T21:12:23.481Z,23.70
2017-12-02T21:14:50.865Z,19.37
2017-12-02T21:17:18.262Z,22.03
2017-12-02T21:19:45.651Z,20.33
2017-12-02T21:22:13.062Z,19.90
2017-12-02T21:24:40.558Z,19.63
2017-12-02T21:27:07.953Z,18.63
2017-12-02T21:29:35.337Z,19.23
2017-12-02T21:32:02.736Z,19.90
2017-12-02T21:34:30.127Z,17.17
2017-12-02T21:36:57.644Z,17.50
2017-12-02T21:39:25.033Z,19.17
2017-12-02T21:41:52.429Z,18.43
2017-12-02T21:44:19.826Z,19.30
2017-12-02T21:46:47.325Z,20.27
2017-12-02T21:49:14.772Z,19.60
2017-12-02T21:51:42.230Z,19.63
2017-12-02T21:54:09.626Z,20.60
2017-12-02T21:56:37.011Z,19.20
2017-12-02T21:59:04.407Z,19.40
2017-12-02T22:01:31.822Z,18.17
2017-12-02T22:03:59.226Z,17.57
2017-12-02T22:06:26.627Z,19.07
2017-12-02T22:08:54.109Z,19.47
2017-12-02T22:11:21.502Z,19.53
2017-12-02T22:13:48.894Z,16.30
2017-12-02T22:16:16.294Z,20.17
2017-12-02T22:18:43.686Z,21.13
2017-12-02T22:21:11.082Z,19.87
2017-12-02T22:23:38.475Z,21.50
2017-12-02T22:26:05.866Z,22.27
2017-12-02T22:28:33.253Z,22.90
2017-12-02T22:31:00.649Z,21.13
2017-12-02T22:33:28.042Z,22.30
2017-12-02T22:35:55.517Z,22.30
2017-12-02T22:38:22.980Z,22.97
2017-12-02T22:40:50.374Z,20.30
2017-12-02T22:43:17.771Z,21.00
2017-12-02T22:45:45.170Z,18.43
2017-12-02T22:48:12.571Z,22.33
2017-12-02T22:50:40.055Z,21.20
2017-12-02T22:53:07.502Z,19.07
2017-12-02T22:55:34.895Z,20.23
2017-12-02T22:58:02.327Z,20.97
2017-12-02T23:00:29.721Z,20.87
2017-12-02T23:02:57.110Z,20.03
2017-12-02T23:08:14.672Z,20.10
2017-12-02T23:10:42.084Z,23.27
2017-12-02T23:13:09.513Z,21.47
2017-12-02T23:15:36.918Z,22.77
2017-12-02T23:18:04.318Z,22.80
2017-12-02T23:20:31.718Z,24.50
2017-12-02T23:22:59.125Z,25.03
2017-12-02T23:25:26.600Z,25.47
2017-12-02T23:27:53.985Z,24.13
2017-12-02T23:30:21.566Z,27.30
2017-12-02T23:32:48.979Z,25.90
2017-12-02T23:35:16.487Z,28.73
2017-12-02T23:37:44.018Z,27.03
2017-12-02T23:40:11.644Z,26.17
2017-12-02T23:42:39.253Z,27.00
2017-12-02T23:45:06.654Z,23.90
2017-12-02T23:47:34.056Z,29.23
2017-12-02T23:50:01.460Z,26.83
2017-12-02T23:52:28.919Z,27.97
2017-12-02T23:54:56.305Z,27.60
2017-12-02T23:57:23.726Z,29.30
2017-12-02T23:59:51.118Z,28.43
